createdAt,value
2023-01-01T00:01:18.402Z,98754.56
2023-01-01T00:03:45.502Z,98760.50
2023-01-01T00:06:12.593Z,98764.31
2023-01-01T00:08:39.656Z,98760.97
2023-01-01T00:11:06.739Z,98774.25
2023-01-01T00:13:33.815Z,98774.75
2023-01-01T00:16:00.993Z,98769.03
2023-01-01T00:18:28.087Z,98770.31
2023-01-01T00:20:55.149Z,98767.22
2023-01-01T00:23:22.210Z,98769.94
2023-01-01T00:25:49.289Z,98767.44
2023-01-01T00:28:16.374Z,98771.00
2023-01-01T00:30:43.457Z,98772.56
2023-01-01T00:33:10.591Z,98773.50
2023-01-01T00:35:37.693Z,98779.78
2023-01-01T00:38:04.770Z,98768.75
2023-01-01T00:40:31.876Z,98768.03
2023-01-01T00:42:58.940Z,98764.38
2023-01-01T00:45:26.067Z,98764.50
2023-01-01T00:47:53.162Z,98764.50
2023-01-01T00:50:20.277Z,98763.66
2023-01-01T00:52:50.090Z,98757.72
2023-01-01T00:55:17.224Z,98762.81
2023-01-01T00:57:44.305Z,98758.44
2023-01-01T01:00:11.499Z,98768.88
2023-01-01T01:02:38.861Z,98760.19
2023-01-01T01:05:06.133Z,98768.88
2023-01-01T01:07:33.267Z,98778.47
2023-01-01T01:10:00.334Z,98774.34
2023-01-01T01:12:27.417Z,98762.34
2023-01-01T01:14:54.492Z,98763.91
2023-01-01T01:17:21.551Z,98764.41
2023-01-01T01:19:48.884Z,98763.31
2023-01-01T01:22:16.040Z,98764.97
2023-01-01T01:24:43.124Z,98758.69
2023-01-01T01:27:10.225Z,98759.88
2023-01-01T01:29:37.382Z,98757.97
2023-01-01T01:32:04.488Z,98753.34
2023-01-01T01:34:31.574Z,98761.91
2023-01-01T01:36:58.674Z,98766.38
2023-01-01T01:39:25.743Z,98753.25
2023-01-01T01:41:52.848Z,98754.22
2023-01-01T01:44:19.972Z,98759.31
2023-01-01T01:46:47.066Z,98766.31
2023-01-01T01:49:14.213Z,98761.09
2023-01-01T01:51:41.302Z,98764.78
2023-01-01T01:54:08.420Z,98766.91
2023-01-01T01:56:35.534Z,98761.22
2023-01-01T01:59:02.597Z,98755.31
2023-01-01T02:01:29.882Z,98751.00
2023-01-01T02:03:57.400Z,98748.75
2023-01-01T02:06:24.485Z,98753.72
2023-01-01T02:08:51.561Z,98751.47
2023-01-01T02:11:21.908Z,98750.16
2023-01-01T02:13:49.313Z,98760.13
2023-01-01T02:16:16.420Z,98755.00
2023-01-01T02:18:43.592Z,98761.66
2023-01-01T02:21:10.681Z,98752.06
2023-01-01T02:23:37.822Z,98753.94
2023-01-01T02:26:04.943Z,98747.91
2023-01-01T02:28:32.007Z,98746.84
2023-01-01T02:30:59.141Z,98748.63
2023-01-01T02:33:26.209Z,98754.66
2023-01-01T02:35:53.319Z,98756.44
2023-01-01T02:38:20.399Z,98750.38
2023-01-01T02:40:47.476Z,98754.53
2023-01-01T02:43:14.543Z,98747.91
2023-01-01T02:45:41.871Z,98755.72
2023-01-01T02:48:08.985Z,98749.69
2023-01-01T02:50:36.106Z,98749.69
2023-01-01T02:53:03.236Z,98746.34
2023-01-01T02:55:30.735Z,98751.34
2023-01-01T02:57:57.809Z,98745.88
2023-01-01T03:00:29.454Z,98744.25
2023-01-01T03:02:56.652Z,98747.06
2023-01-01T03:05:23.807Z,98745.41
2023-01-01T03:07:50.893Z,98740.31
2023-01-01T03:10:18.008Z,98744.81
2023-01-01T03:12:45.104Z,98741.25
2023-01-01T03:15:12.299Z,98742.81
2023-01-01T03:17:39.500Z,98746.25
2023-01-01T03:20:06.556Z,98750.97
2023-01-01T03:22:33.619Z,98746.13
2023-01-01T03:25:00.880Z,98738.53
2023-01-01T03:27:27.958Z,98740.44
2023-01-01T03:29:55.036Z,98750.97
2023-01-01T03:32:22.105Z,98753.69
2023-01-01T03:34:49.175Z,98755.94
2023-01-01T03:37:16.301Z,98752.75
2023-01-01T03:39:43.395Z,98761.28
2023-01-01T03:42:10.583Z,98760.78
2023-01-01T03:44:37.648Z,98765.06
2023-01-01T03:47:04.837Z,98767.09
2023-01-01T03:49:32.135Z,98756.91
2023-01-01T03:51:59.221Z,98759.75
2023-01-01T03:54:26.376Z,98757.97
2023-01-01T03:56:53.508Z,98768.28
2023-01-01T03:59:20.593Z,98770.28
2023-01-01T04:01:47.809Z,98772.91
2023-01-01T04:04:14.990Z,98782.75
2023-01-01T04:06:42.057Z,98788.53
2023-01-01T04:09:09.224Z,98793.25
2023-01-01T04:11:54.798Z,98782.84
2023-01-01T04:14:21.872Z,98794.69
2023-01-01T04:16:49.268Z,98796.59
2023-01-01T04:19:16.373Z,98790.66
2023-01-01T04:21:43.457Z,98797.03
2023-01-01T04:24:10.518Z,98797.19
2023-01-01T04:26:37.602Z,98799.44
2023-01-01T04:29:04.698Z,98804.03
2023-01-01T04:31:31.780Z,98806.25
2023-01-01T04:33:59.007Z,98809.16
2023-01-01T04:36:26.109Z,98806.28
2023-01-01T04:38:53.171Z,98803.09
2023-01-01T04:41:20.371Z,98813.50
2023-01-01T04:43:49.780Z,98814.47
2023-01-01T04:46:16.854Z,98807.81
2023-01-01T04:48:43.926Z,98820.63
2023-01-01T04:51:11.021Z,98824.41
2023-01-01T04:53:38.102Z,98827.13
2023-01-01T04:56:05.652Z,98827.25
2023-01-01T04:58:32.720Z,98824.75
2023-01-01T05:00:59.954Z,98823.91
2023-01-01T05:03:27.168Z,98829.13
2023-01-01T05:05:54.270Z,98834.47
2023-01-01T05:08:21.353Z,98832.81
2023-01-01T05:10:48.424Z,98837.88
2023-01-01T05:13:15.506Z,98838.00
2023-01-01T05:15:42.591Z,98842.41
2023-01-01T05:18:09.661Z,98843.31
2023-01-01T05:20:36.729Z,98846.88
2023-01-01T05:23:03.851Z,98856.34
2023-01-01T05:25:30.948Z,98850.31
2023-01-01T05:27:58.215Z,98847.94
2023-01-01T05:30:25.283Z,98849.72
2023-01-01T05:32:52.403Z,98848.06
2023-01-01T05:35:24.496Z,98851.47
2023-01-01T05:37:53.341Z,98845.56
2023-01-01T05:40:22.907Z,98848.19
2023-01-01T05:42:50.060Z,98843.88
2023-01-01T05:45:17.202Z,98841.28
2023-01-01T05:47:44.270Z,98844.00
2023-01-01T05:52:37.315Z,98843.28
2023-01-01T05:55:04.446Z,98858.09
2023-01-01T05:57:31.522Z,98851.94
2023-01-01T05:59:58.642Z,98860.81
2023-01-01T06:02:25.827Z,98864.25
2023-01-01T06:04:52.992Z,98867.81
2023-01-01T06:07:20.094Z,98867.81
2023-01-01T06:09:47.170Z,98867.81
2023-01-01T06:12:14.285Z,98869.69
2023-01-01T06:14:41.618Z,98863.75
2023-01-01T06:17:08.745Z,98865.50
2023-01-01T06:19:35.858Z,98861.88
2023-01-01T06:22:02.921Z,98861.03
2023-01-01T06:24:33.940Z,98866.38
2023-01-01T06:27:07.091Z,98868.38
2023-01-01T06:29:34.213Z,98856.03
2023-01-01T06:32:01.281Z,98865.63
2023-01-01T06:34:28.443Z,98857.34
2023-01-01T06:36:57.110Z,98865.63
2023-01-01T06:39:27.215Z,98872.50
2023-01-01T06:41:54.275Z,98878.78
2023-01-01T06:44:21.494Z,98873.66
2023-01-01T06:46:48.576Z,98881.38
2023-01-01T06:49:15.714Z,98887.53
2023-01-01T06:51:42.831Z,98899.00
2023-01-01T06:54:09.923Z,98897.44
2023-01-01T06:56:37.031Z,98904.44
2023-01-01T06:59:04.101Z,98907.88
2023-01-01T07:01:31.306Z,98918.50
2023-01-01T07:03:58.582Z,98918.41
2023-01-01T07:06:25.713Z,98914.25
2023-01-01T07:08:52.780Z,98914.31
2023-01-01T07:11:19.869Z,98923.81
2023-01-01T07:13:47.130Z,98919.44
2023-01-01T07:16:14.262Z,98922.25
2023-01-01T07:18:41.367Z,98928.44
2023-01-01T07:21:08.491Z,98924.75
2023-01-01T07:23:35.728Z,98929.25
2023-01-01T07:26:02.808Z,98933.63
2023-01-01T07:28:29.882Z,98935.41
2023-01-01T07:30:57.032Z,98944.13
2023-01-01T07:33:24.248Z,98948.44
2023-01-01T07:35:51.333Z,98959.47
2023-01-01T07:38:18.504Z,98956.94
2023-01-01T07:40:45.615Z,98955.09
2023-01-01T07:43:13.758Z,98959.34
2023-01-01T07:45:40.819Z,98956.84
2023-01-01T07:48:07.876Z,98955.91
2023-01-01T07:50:37.217Z,98952.69
2023-01-01T07:53:04.314Z,98959.66
2023-01-01T07:55:31.437Z,98962.28
2023-01-01T07:57:58.507Z,98964.88
2023-01-01T08:00:25.575Z,98979.56
2023-01-01T08:02:52.792Z,98983.13
2023-01-01T08:05:26.257Z,98989.28
2023-01-01T08:07:54.051Z,98986.75
2023-01-01T08:10:21.221Z,98993.53
2023-01-01T08:12:48.312Z,98991.13
2023-01-01T08:15:15.411Z,99001.56
2023-01-01T08:17:46.379Z,99002.38
2023-01-01T08:20:14.393Z,99001.56
2023-01-01T08:22:41.507Z,99006.88
2023-01-01T08:25:08.652Z,99008.53
2023-01-01T08:27:35.718Z,99008.41
2023-01-01T08:30:02.768Z,99010.41
2023-01-01T08:32:29.924Z,99013.00
2023-01-01T08:34:57.062Z,99012.19
2023-01-01T08:37:24.185Z,99014.78
2023-01-01T08:39:51.304Z,99021.75
2023-01-01T08:42:18.436Z,99023.53
2023-01-01T08:44:45.580Z,99031.44
2023-01-01T08:47:12.648Z,99028.84
2023-01-01T08:49:39.730Z,99025.41
2023-01-01T08:52:06.791Z,99020.09
2023-01-01T08:54:33.882Z,99029.69
2023-01-01T08:57:00.955Z,99030.59
2023-01-01T08:59:28.006Z,99035.94
2023-01-01T09:01:55.222Z,99032.59
2023-01-01T09:04:22.473Z,99032.50
2023-01-01T09:06:49.549Z,99039.50
2023-01-01T09:09:18.688Z,99040.41
2023-01-01T09:11:46.828Z,99039.50
2023-01-01T09:14:13.894Z,99040.31
2023-01-01T09:16:44.237Z,99051.44
2023-01-01T09:19:11.594Z,99049.06
2023-01-01T09:21:38.673Z,99058.63
2023-01-01T09:24:05.757Z,99056.97
2023-01-01T09:26:33.039Z,99060.31
2023-01-01T09:29:00.139Z,99058.63
2023-01-01T09:31:27.296Z,99057.91
2023-01-01T09:33:54.403Z,99066.56
2023-01-01T09:36:21.490Z,99068.22
2023-01-01T09:38:48.581Z,99064.78
2023-01-01T09:41:15.773Z,99066.56
2023-01-01T09:43:43.003Z,99064.78
2023-01-01T09:46:11.315Z,99072.72
2023-01-01T09:48:38.503Z,99069.28
2023-01-01T09:51:05.593Z,99064.91
2023-01-01T09:53:32.723Z,99060.59
2023-01-01T09:55:59.824Z,99059.78
2023-01-01T09:58:26.940Z,99063.22
2023-01-01T10:00:54.050Z,99054.56
2023-01-01T10:03:21.136Z,99048.53
2023-01-01T10:05:48.262Z,99053.75
2023-01-01T10:08:21.153Z,99047.72
2023-01-01T10:10:51.154Z,99040.84
2023-01-01T10:13:18.213Z,99047.72
2023-01-01T10:15:45.293Z,99044.38
2023-01-01T10:18:12.352Z,99039.16
2023-01-01T10:20:39.427Z,99037.41
2023-01-01T10:23:06.522Z,99043.53
2023-01-01T10:25:33.660Z,99048.75
2023-01-01T10:28:00.732Z,99042.50
2023-01-01T10:30:27.818Z,99046.13
2023-01-01T10:32:54.889Z,99038.31
2023-01-01T10:35:26.863Z,99043.97
2023-01-01T10:37:57.275Z,99048.03
2023-01-01T10:40:24.350Z,99042.09
2023-01-01T10:42:51.448Z,99044.47
2023-01-01T10:45:18.519Z,99048.13
2023-01-01T10:47:45.584Z,99052.69
2023-01-01T10:50:12.677Z,99045.09
2023-01-01T10:52:44.117Z,99044.47
2023-01-01T10:55:11.192Z,99057.38
2023-01-01T10:57:38.807Z,99049.66
2023-01-01T11:00:05.902Z,99057.75
2023-01-01T11:02:33.162Z,99055.91
2023-01-01T11:05:04.198Z,99055.72
2023-01-01T11:07:33.961Z,99046.44
2023-01-01T11:10:04.083Z,99042.78
2023-01-01T11:13:03.478Z,99045.69
2023-01-01T11:15:19.514Z,99044.16
2023-01-01T11:17:46.606Z,99045.69
2023-01-01T11:20:13.700Z,99038.00
2023-01-01T11:22:40.864Z,99037.69
2023-01-01T11:25:07.961Z,99043.63
2023-01-01T11:27:35.065Z,99040.50
2023-01-01T11:30:02.152Z,99036.34
2023-01-01T11:32:29.282Z,99025.09
2023-01-01T11:34:56.362Z,99023.00
2023-01-01T11:37:23.523Z,99016.88
2023-01-01T11:39:50.635Z,99014.47
2023-01-01T11:42:17.744Z,99006.88
2023-01-01T11:44:44.808Z,99010.41
2023-01-01T11:47:11.869Z,99006.97
2023-01-01T11:49:38.961Z,99003.97
2023-01-01T11:52:06.019Z,99001.38
2023-01-01T11:54:34.121Z,99000.63
2023-01-01T11:57:01.208Z,98999.56
2023-01-01T11:59:28.269Z,99005.13
2023-01-01T12:01:55.376Z,99007.28
2023-01-01T12:04:22.560Z,98995.09
2023-01-01T12:06:49.666Z,98991.88
2023-01-01T12:09:18.794Z,98997.50
2023-01-01T12:11:46.165Z,98992.50
2023-01-01T12:14:13.264Z,98988.84
2023-01-01T12:16:40.517Z,98984.16
2023-01-01T12:19:07.636Z,98984.09
2023-01-01T12:21:34.725Z,98987.63
2023-01-01T12:24:03.003Z,98980.66
2023-01-01T12:26:30.086Z,98985.88
2023-01-01T12:28:57.179Z,98980.34
2023-01-01T12:31:24.280Z,98975.97
2023-01-01T12:33:51.446Z,98975.44
2023-01-01T12:36:18.577Z,98973.03
2023-01-01T12:38:45.681Z,98983.13
2023-01-01T12:41:13.500Z,98977.91
2023-01-01T12:43:40.627Z,98976.78
2023-01-01T12:46:07.853Z,98975.13
2023-01-01T12:48:35.033Z,98972.22
2023-01-01T12:51:05.463Z,98974.28
2023-01-01T12:53:32.868Z,98962.41
2023-01-01T12:55:59.931Z,98970.72
2023-01-01T12:58:27.182Z,98968.66
2023-01-01T13:00:54.245Z,98968.94
2023-01-01T13:03:21.557Z,98970.72
2023-01-01T13:05:48.772Z,98961.59
2023-01-01T13:08:15.848Z,98957.09
2023-01-01T13:10:42.925Z,98959.94
2023-01-01T13:13:10.001Z,98960.53
2023-01-01T13:15:37.099Z,98959.81
2023-01-01T13:18:04.249Z,98953.94
2023-01-01T13:20:31.341Z,98958.31
2023-01-01T13:22:58.428Z,98952.06
2023-01-01T13:25:25.551Z,98953.94
2023-01-01T13:27:52.613Z,98946.75
2023-01-01T13:30:19.687Z,98945.91
2023-01-01T13:32:46.750Z,98938.31
2023-01-01T13:35:13.817Z,98939.06
2023-01-01T13:37:41.807Z,98927.59
2023-01-01T13:40:08.891Z,98933.72
2023-01-01T13:42:35.989Z,98931.97
2023-01-01T13:45:03.250Z,98929.38
2023-01-01T13:47:30.458Z,98936.56
2023-01-01T13:49:57.552Z,98934.25
2023-01-01T13:52:24.668Z,98932.88
2023-01-01T13:54:51.751Z,98935.03
2023-01-01T13:57:18.833Z,98935.97
2023-01-01T13:59:45.887Z,98939.13
2023-01-01T14:02:13.138Z,98947.00
2023-01-01T14:04:40.429Z,98936.69
2023-01-01T14:07:32.929Z,98945.75
2023-01-01T14:09:54.565Z,98949.50
2023-01-01T14:12:21.639Z,98942.41
2023-01-01T14:14:48.771Z,98942.94
2023-01-01T14:17:15.864Z,98940.63
2023-01-01T14:19:42.981Z,98945.88
2023-01-01T14:22:10.078Z,98943.38
2023-01-01T14:24:37.147Z,98943.97
2023-01-01T14:27:04.268Z,98958.03
2023-01-01T14:29:31.340Z,98961.59
2023-01-01T14:31:58.451Z,98956.69
2023-01-01T14:34:25.632Z,98949.53
2023-01-01T14:36:52.794Z,98955.03
2023-01-01T14:39:25.439Z,98951.78
2023-01-01T14:41:54.393Z,98950.75
2023-01-01T14:44:21.484Z,98952.53
2023-01-01T14:46:48.562Z,98955.13
2023-01-01T14:49:15.628Z,98949.59
2023-01-01T14:51:44.840Z,98943.91
2023-01-01T14:54:12.047Z,98952.28
2023-01-01T14:56:39.101Z,98952.00
2023-01-01T14:59:06.175Z,98961.13
2023-01-01T15:01:33.349Z,98959.75
2023-01-01T15:04:00.522Z,98960.22
2023-01-01T15:06:27.700Z,98951.94
2023-01-01T15:08:54.849Z,98963.81
2023-01-01T15:11:26.755Z,98962.06
2023-01-01T15:13:56.568Z,98962.22
2023-01-01T15:16:23.944Z,98953.59
2023-01-01T15:18:51.375Z,98946.72
2023-01-01T15:21:18.580Z,98959.88
2023-01-01T15:23:45.637Z,98962.00
2023-01-01T15:26:12.688Z,98962.63
2023-01-01T15:28:39.801Z,98963.97
2023-01-01T15:31:07.137Z,98963.44
2023-01-01T15:33:34.234Z,98970.00
2023-01-01T15:36:03.979Z,98964.78
2023-01-01T15:38:31.131Z,98965.41
2023-01-01T15:40:58.202Z,98961.75
2023-01-01T15:43:25.582Z,98968.50
2023-01-01T15:45:52.788Z,98969.22
2023-01-01T15:48:19.892Z,98961.28
2023-01-01T15:50:46.989Z,98953.59
2023-01-01T15:53:14.053Z,98954.63
2023-01-01T15:55:41.162Z,98960.81
2023-01-01T15:58:08.247Z,98953.69
2023-01-01T16:00:35.332Z,98958.91
2023-01-01T16:03:02.457Z,98964.13
2023-01-01T16:05:29.602Z,98968.63
2023-01-01T16:07:56.676Z,98960.06
2023-01-01T16:10:23.752Z,98959.16
2023-01-01T16:12:50.826Z,98962.94
2023-01-01T16:15:17.899Z,98961.06
2023-01-01T16:17:44.957Z,98958.47
2023-01-01T16:20:12.040Z,98950.75
2023-01-01T16:22:39.129Z,98946.84
2023-01-01T16:25:06.253Z,98950.06
2023-01-01T16:27:33.314Z,98950.16
2023-01-01T16:30:00.386Z,98951.47
2023-01-01T16:32:27.474Z,98946.03
2023-01-01T16:34:54.608Z,98949.97
2023-01-01T16:37:23.332Z,98949.88
2023-01-01T16:39:50.451Z,98938.16
2023-01-01T16:42:17.702Z,98937.22
2023-01-01T16:44:44.793Z,98937.81
2023-01-01T16:47:11.898Z,98944.22
2023-01-01T16:49:38.957Z,98939.56
2023-01-01T16:52:06.031Z,98933.47
2023-01-01T16:54:33.584Z,98933.19
2023-01-01T16:57:00.644Z,98934.94
2023-01-01T16:59:27.900Z,98927.03
2023-01-01T17:01:55.114Z,98928.47
2023-01-01T17:04:22.392Z,98927.72
2023-01-01T17:06:49.444Z,98930.25
2023-01-01T17:09:16.525Z,98925.66
2023-01-01T17:11:43.777Z,98921.41
2023-01-01T17:14:10.914Z,98921.06
2023-01-01T17:16:39.914Z,98916.38
2023-01-01T17:19:16.024Z,98915.19
2023-01-01T17:21:44.107Z,98912.81
2023-01-01T17:24:11.194Z,98914.47
2023-01-01T17:26:38.289Z,98912.38
2023-01-01T17:29:07.583Z,98910.44
2023-01-01T17:31:34.763Z,98905.94
2023-01-01T17:34:01.859Z,98912.09
2023-01-01T17:36:28.930Z,98911.16
2023-01-01T17:38:56.035Z,98914.09
2023-01-01T17:41:23.131Z,98918.69
2023-01-01T17:43:50.708Z,98916.59
2023-01-01T17:46:17.863Z,98913.16
2023-01-01T17:48:45.006Z,98912.75
2023-01-01T17:51:12.085Z,98918.47
2023-01-01T17:53:39.946Z,98921.81
2023-01-01T17:56:07.072Z,98938.28
2023-01-01T17:58:35.721Z,98930.81
2023-01-01T18:01:02.974Z,98935.81
2023-01-01T18:03:30.167Z,98936.94
2023-01-01T18:05:57.343Z,98929.53
2023-01-01T18:08:24.409Z,98932.97
2023-01-01T18:10:51.477Z,98929.31
2023-01-01T18:13:18.556Z,98914.97
2023-01-01T18:15:45.657Z,98923.63
2023-01-01T18:18:12.791Z,98921.63
2023-01-01T18:20:39.897Z,98908.50
2023-01-01T18:23:07.025Z,98907.41
2023-01-01T18:25:34.154Z,98911.09
2023-01-01T18:28:01.250Z,98906.72
2023-01-01T18:30:28.330Z,98906.31
2023-01-01T18:32:55.390Z,98905.28
2023-01-01T18:35:22.461Z,98901.50
2023-01-01T18:37:49.524Z,98898.06
2023-01-01T18:40:16.644Z,98900.66
2023-01-01T18:42:43.736Z,98903.28
2023-01-01T18:45:10.825Z,98900.53
2023-01-01T18:47:37.932Z,98903.38
2023-01-01T18:50:05.023Z,98904.31
2023-01-01T18:52:32.124Z,98905.16
2023-01-01T18:54:59.233Z,98907.38
2023-01-01T18:57:29.538Z,98903.84
2023-01-01T18:59:56.957Z,98906.19
2023-01-01T19:02:26.801Z,98900.97
2023-01-01T19:04:53.893Z,98892.81
2023-01-01T19:07:20.992Z,98898.72
2023-01-01T19:09:49.043Z,98890.81
2023-01-01T19:12:19.102Z,98889.03
2023-01-01T19:14:46.161Z,98883.81
2023-01-01T19:17:13.315Z,98875.16
2023-01-01T19:19:40.679Z,98880.13
2023-01-01T19:22:07.833Z,98877.28
2023-01-01T19:24:34.907Z,98870.28
2023-01-01T19:27:02.022Z,98878.13
2023-01-01T19:29:29.093Z,98866.44
2023-01-01T19:31:56.203Z,98872.75
2023-01-01T19:34:23.343Z,98865.66
2023-01-01T19:36:50.428Z,98866.34
2023-01-01T19:39:17.551Z,98863.41
2023-01-01T19:41:44.628Z,98859.31
2023-01-01T19:44:11.718Z,98854.72
2023-01-01T19:46:38.854Z,98844.41
2023-01-01T19:49:06.053Z,98852.84
2023-01-01T19:51:33.134Z,98845.38
2023-01-01T19:54:00.211Z,98851.44
2023-01-01T19:56:27.336Z,98851.06
2023-01-01T19:58:54.453Z,98843.00
2023-01-01T20:01:21.667Z,98849.28
2023-01-01T20:03:54.816Z,98847.41
2023-01-01T20:06:23.440Z,98845.47
2023-01-01T20:08:50.567Z,98840.16
2023-01-01T20:11:17.640Z,98832.56
2023-01-01T20:13:44.781Z,98838.47
2023-01-01T20:16:11.913Z,98846.78
2023-01-01T20:18:39.002Z,98834.44
2023-01-01T20:21:26.743Z,98845.97
2023-01-01T20:23:54.243Z,98851.75
2023-01-01T20:26:23.515Z,98842.16
2023-01-01T20:29:09.520Z,98843.63
2023-01-01T20:31:36.677Z,98842.81
2023-01-01T20:34:03.820Z,98844.94
2023-01-01T20:36:49.623Z,98848.97
2023-01-01T20:39:16.743Z,98843.03
2023-01-01T20:41:43.809Z,98844.84
2023-01-01T20:44:10.883Z,98837.97
2023-01-01T20:46:38.546Z,98837.13
2023-01-01T20:49:05.663Z,98841.97
2023-01-01T20:51:32.772Z,98847.69
2023-01-01T20:53:59.891Z,98849.09
2023-01-01T20:56:26.970Z,98850.63
2023-01-01T20:59:00.183Z,98854.91
2023-01-01T21:01:29.148Z,98854.78
2023-01-01T21:03:56.352Z,98859.66
2023-01-01T21:06:24.803Z,98850.41
2023-01-01T21:08:52.129Z,98850.63
2023-01-01T21:11:19.197Z,98854.06
2023-01-01T21:13:46.278Z,98855.50
2023-01-01T21:16:13.361Z,98851.09
2023-01-01T21:18:40.473Z,98848.50
2023-01-01T21:21:07.543Z,98850.16
2023-01-01T21:23:34.598Z,98844.22
2023-01-01T21:26:01.916Z,98846.72
2023-01-01T21:28:29.009Z,98849.69
2023-01-01T21:30:56.064Z,98844.81
2023-01-01T21:33:23.133Z,98841.28
2023-01-01T21:35:50.203Z,98838.78
2023-01-01T21:38:17.385Z,98844.13
2023-01-01T21:40:44.454Z,98837.72
2023-01-01T21:43:11.531Z,98832.50
2023-01-01T21:45:40.635Z,98826.56
2023-01-01T21:48:07.804Z,98825.66
2023-01-01T21:50:34.880Z,98830.59
2023-01-01T21:53:01.932Z,98840.31
2023-01-01T21:55:52.045Z,98838.69
2023-01-01T21:58:37.707Z,98830.84
2023-01-01T22:01:04.896Z,98835.22
2023-01-01T22:03:32.045Z,98830.25
2023-01-01T22:05:59.618Z,98845.50
2023-01-01T22:08:26.808Z,98840.44
2023-01-01T22:10:53.917Z,98851.19
2023-01-01T22:13:21.059Z,98850.84
2023-01-01T22:15:48.185Z,98841.59
2023-01-01T22:18:15.274Z,98840.91
2023-01-01T22:20:42.331Z,98839.84
2023-01-01T22:23:09.405Z,98825.88
2023-01-01T22:25:36.470Z,98836.66
2023-01-01T22:28:03.556Z,98835.47
2023-01-01T22:30:30.708Z,98841.50
2023-01-01T22:32:57.812Z,98841.00
2023-01-01T22:35:24.923Z,98860.59
2023-01-01T22:37:55.804Z,98862.19
2023-01-01T22:40:23.269Z,98859.72
2023-01-01T22:42:50.339Z,98860.69
2023-01-01T22:45:17.412Z,98856.59
2023-01-01T22:47:47.286Z,98863.72
2023-01-01T22:50:14.378Z,98863.94
2023-01-01T22:52:41.434Z,98862.38
2023-01-01T22:55:08.497Z,98861.56
2023-01-01T22:57:35.576Z,98857.53
2023-01-01T23:00:02.695Z,98846.28
2023-01-01T23:02:29.890Z,98849.00
2023-01-01T23:04:57.078Z,98846.50
2023-01-01T23:07:24.148Z,98849.22
2023-01-01T23:09:51.213Z,98841.41
2023-01-01T23:12:18.312Z,98845.88
2023-01-01T23:15:04.241Z,98839.84
2023-01-01T23:17:31.324Z,98833.00
2023-01-01T23:19:58.490Z,98829.56
2023-01-01T23:22:26.732Z,98824.44
2023-01-01T23:24:53.830Z,98828.00
2023-01-01T23:27:20.903Z,98815.94
2023-01-01T23:29:47.972Z,98815.09
2023-01-01T23:32:15.041Z,98832.38
2023-01-01T23:34:42.139Z,98818.53
2023-01-01T23:37:09.225Z,98825.59
2023-01-01T23:39:36.330Z,98808.56
2023-01-01T23:42:03.392Z,98810.47
2023-01-01T23:44:30.633Z,98808.69
2023-01-01T23:46:57.707Z,98808.56
2023-01-01T23:49:24.765Z,98818.75
2023-01-01T23:51:51.875Z,98812.59
2023-01-01T23:54:18.948Z,98808.34
2023-01-01T23:56:46.013Z,98810.34
2023-01-01T23:59:13.149Z,98808.69
